createdAt,value
2022-10-12T10:11:29.524Z,1008.967346
2022-10-12T10:12:09.428Z,1008.922913
2022-10-12T10:13:08.335Z,1008.96814
2022-10-12T10:14:07.188Z,1008.984863
2022-10-12T10:15:02.361Z,1008.931885
2022-10-12T10:16:02.221Z,1008.956726
2022-10-12T10:16:57.466Z,1008.883179
2022-10-12T10:17:56.818Z,1008.919861
2022-10-12T10:18:51.962Z,1008.940491
2022-10-12T10:20:46.622Z,1008.964844
2022-10-12T10:21:45.952Z,1008.962646
2022-10-12T10:22:41.338Z,1008.974854
2022-10-12T10:23:43.306Z,1008.950439
2022-10-12T10:25:35.738Z,1009.048279
2022-10-12T10:26:31.005Z,1008.974854
2022-10-12T10:27:31.132Z,1008.929993
2022-10-12T10:28:28.925Z,1008.927795
2022-10-12T10:30:33.863Z,1008.899475
2022-10-12T10:30:36.582Z,1008.899475
2022-10-12T10:31:22.685Z,1008.917908
2022-10-12T10:32:23.057Z,1009.007629
2022-10-12T10:33:15.804Z,1008.864685
2022-10-12T10:34:15.514Z,1009.001465
2022-10-12T10:36:09.363Z,1008.856384
2022-10-12T10:37:04.566Z,1008.899475
2022-10-12T10:38:00.039Z,1008.901245
2022-10-12T10:38:58.980Z,1008.856323
2022-10-12T10:39:53.440Z,1008.809387
2022-10-12T10:40:51.822Z,1008.81958
2022-10-12T10:41:46.170Z,1008.79718
2022-10-12T10:42:42.441Z,1008.925171
2022-10-12T10:43:43.622Z,1008.902649
2022-10-12T10:44:35.382Z,1008.869995
2022-10-12T10:45:36.853Z,1008.888428
2022-10-12T10:46:29.412Z,1008.880127
2022-10-12T10:47:30.251Z,1008.861938
2022-10-12T10:48:22.461Z,1008.853577
2022-10-12T10:50:15.047Z,1008.888428
2022-10-12T10:51:13.269Z,1008.878296
2022-10-12T10:52:07.105Z,1008.794373
2022-10-12T10:53:03.658Z,1008.741333
2022-10-12T10:54:04.669Z,1008.867798
2022-10-12T10:54:56.299Z,1008.814758
2022-10-12T10:55:52.459Z,1008.802734
2022-10-12T10:56:51.816Z,1008.755798
2022-10-12T10:57:45.590Z,1008.737366
2022-10-12T10:58:46.883Z,1008.782349
2022-10-12T11:00:39.226Z,1008.712952
2022-10-12T11:00:40.815Z,1008.712952
2022-10-12T11:01:35.894Z,1008.702759
2022-10-12T11:02:27.484Z,1008.745605
2022-10-12T11:04:04.669Z,1008.688538
2022-10-12T11:05:44.767Z,1008.664368
2022-10-12T11:06:40.303Z,1008.670654
2022-10-12T11:07:40.511Z,1008.639709
2022-10-12T11:08:35.944Z,1008.578369
2022-10-12T11:10:33.872Z,1008.656067
2022-10-12T11:11:29.215Z,1008.709229
2022-10-12T11:12:31.269Z,1008.657959
2022-10-12T11:13:26.019Z,1008.631409
2022-10-12T11:15:21.428Z,1008.627136
2022-10-12T11:16:21.065Z,1008.716858
2022-10-12T11:17:16.345Z,1008.655762
2022-10-12T11:18:16.258Z,1008.788513
2022-10-12T11:19:11.529Z,1008.684204
2022-10-12T11:20:12.809Z,1008.631165
2022-10-12T11:21:07.002Z,1008.680176
2022-10-12T11:22:06.880Z,1008.631165
2022-10-12T11:23:02.233Z,1008.663879
2022-10-12T11:23:59.046Z,1008.602783
2022-10-12T11:25:01.408Z,1008.578125
2022-10-12T11:25:54.477Z,1008.639526
2022-10-12T11:26:56.479Z,1008.620911
2022-10-12T11:27:53.430Z,1008.586426
2022-10-12T11:28:49.197Z,1008.574036
2022-10-12T11:30:44.082Z,1008.527161
2022-10-12T11:31:39.359Z,1008.51532
2022-10-12T11:32:41.499Z,1008.460144
2022-10-12T11:33:34.484Z,1008.502991
2022-10-12T11:34:34.525Z,1008.509155
2022-10-12T11:35:30.077Z,1008.484863
2022-10-12T11:36:29.747Z,1008.527649
2022-10-12T11:37:25.190Z,1008.47052
2022-10-12T11:38:27.828Z,1008.407166
2022-10-12T11:40:30.992Z,1008.43158
2022-10-12T11:40:47.830Z,1008.43158
2022-10-12T11:40:55.783Z,1008.43158
2022-10-12T11:41:35.754Z,1008.454041
2022-10-12T11:41:36.548Z,1008.454041
2022-10-12T11:41:45.010Z,1008.454041
2022-10-12T11:42:22.576Z,1008.460449
2022-10-12T11:42:22.945Z,1008.460449
2022-10-12T11:43:16.052Z,1008.47467
2022-10-12T11:44:12.349Z,1008.464539
2022-10-12T11:45:11.390Z,1008.374634
2022-10-12T11:46:06.708Z,1008.464539
2022-10-12T11:47:06.574Z,1008.42572
2022-10-12T11:48:01.616Z,1008.374512
2022-10-12T11:49:04.223Z,1008.403259
2022-10-12T11:49:56.994Z,1008.344055
2022-10-12T11:51:00.058Z,1008.315308
2022-10-12T11:51:04.319Z,1008.315308
2022-10-12T11:52:42.532Z,1008.337708
2022-10-12T11:53:37.991Z,1008.321533
2022-10-12T11:54:36.054Z,1008.366333
2022-10-12T11:55:35.445Z,1008.313232
2022-10-12T11:56:33.863Z,1008.317322
2022-10-12T11:57:29.105Z,1008.354065
2022-10-12T11:58:55.846Z,1008.346069
2022-10-12T11:58:59.477Z,1008.346069
2022-10-12T12:00:17.029Z,1008.352173
2022-10-12T12:01:16.290Z,1008.309082
2022-10-12T12:02:11.125Z,1008.33783
2022-10-12T12:03:11.533Z,1008.272339
2022-10-12T12:04:29.135Z,1008.317444
2022-10-12T12:04:36.398Z,1008.317444
2022-10-12T12:04:40.660Z,1008.317444
2022-10-12T12:05:43.769Z,1008.231628
2022-10-12T12:06:23.325Z,1008.245789
2022-10-12T12:07:21.032Z,1008.239746
2022-10-12T12:08:21.156Z,1008.2724
2022-10-12T12:09:16.500Z,1008.256104
2022-10-12T12:11:11.709Z,1008.229553
2022-10-12T12:12:11.290Z,1008.294739
2022-10-12T12:13:06.601Z,1008.25
2022-10-12T12:14:06.392Z,1008.245789
2022-10-12T12:15:01.397Z,1008.325439
2022-10-12T12:16:01.551Z,1008.311279
2022-10-12T12:16:56.843Z,1008.225525
2022-10-12T12:17:56.833Z,1008.321533
2022-10-12T12:18:52.207Z,1008.235779
2022-10-12T12:19:54.775Z,1008.227417
2022-10-12T12:20:47.180Z,1008.252014
2022-10-12T12:21:49.638Z,1008.286621
2022-10-12T12:22:42.202Z,1008.278564
2022-10-12T12:23:44.642Z,1008.270325
2022-10-12T12:24:39.048Z,1008.252014
2022-10-12T12:25:37.127Z,1008.241882
2022-10-12T12:26:32.602Z,1008.311279
2022-10-12T12:27:34.722Z,1008.213135
2022-10-12T12:28:27.351Z,1008.202881
2022-10-12T12:30:22.426Z,1008.170227
2022-10-12T12:31:24.986Z,1008.178528
2022-10-12T12:32:17.693Z,1008.141724
2022-10-12T12:33:20.064Z,1008.176331
2022-10-12T12:34:12.622Z,1008.121338
2022-10-12T12:35:14.899Z,1008.129395
2022-10-12T12:36:07.585Z,1008.112976
2022-10-12T12:37:09.817Z,1008.139526
2022-10-12T12:38:02.923Z,1008.102783
2022-10-12T12:39:05.707Z,1008.086426
2022-10-12T12:39:58.292Z,1008.141724
2022-10-12T12:41:00.420Z,1008.043579
2022-10-12T12:41:57.787Z,1008.106873
2022-10-12T12:42:01.947Z,1008.106873
2022-10-12T12:42:51.037Z,1008.096619
2022-10-12T12:43:50.866Z,1008.015076
2022-10-12T12:44:45.630Z,1008.062134
2022-10-12T12:45:46.190Z,1008.096619
2022-10-12T12:46:41.377Z,1008.029236
2022-10-12T12:47:45.987Z,1008.06604
2022-10-12T12:47:46.803Z,1008.06604
2022-10-12T12:48:38.905Z,1008.006775
2022-10-12T12:49:34.196Z,1008.043579
2022-10-12T12:50:36.755Z,1008.086426
2022-10-12T12:51:31.346Z,1007.962036
2022-10-12T12:52:29.338Z,1007.91687
2022-10-12T12:53:24.214Z,1007.935486
2022-10-12T12:54:24.187Z,1007.931274
2022-10-12T12:55:19.495Z,1007.935303
2022-10-12T12:56:19.267Z,1007.911011
2022-10-12T12:57:14.145Z,1007.966003
2022-10-12T12:58:16.312Z,1007.904907
2022-10-12T12:59:08.636Z,1007.890442
2022-10-12T13:01:38.197Z,1007.851868
2022-10-12T13:02:18.999Z,1007.768066
2022-10-12T13:03:18.018Z,1007.825073
2022-10-12T13:04:17.337Z,1007.814819
2022-10-12T13:05:13.018Z,1007.875916
2022-10-12T13:06:12.588Z,1007.85968
2022-10-12T13:07:07.952Z,1007.847473
2022-10-12T13:08:07.984Z,1007.806824
2022-10-12T13:09:03.323Z,1007.827271
2022-10-12T13:10:58.529Z,1007.743408
2022-10-12T13:11:58.525Z,1007.815002
2022-10-12T13:12:53.657Z,1007.778259
2022-10-12T13:13:51.884Z,1007.672058
2022-10-12T13:14:51.968Z,1007.712708
2022-10-12T13:15:47.395Z,1007.739197
2022-10-12T13:17:31.158Z,1007.625
2022-10-12T13:17:44.306Z,1007.675964
2022-10-12T13:18:48.828Z,1007.655457
2022-10-12T13:19:42.448Z,1007.600464
2022-10-12T13:20:37.722Z,1007.702515
2022-10-12T13:21:38.447Z,1007.614502
2022-10-12T13:22:34.343Z,1007.608459
2022-10-12T13:23:31.223Z,1007.592163
2022-10-12T13:24:31.108Z,1007.578064
2022-10-12T13:25:26.329Z,1007.606567
2022-10-12T13:26:26.015Z,1007.629211
2022-10-12T13:27:21.250Z,1007.602661
2022-10-12T13:28:23.937Z,1007.612793
2022-10-12T13:29:16.349Z,1007.633301
2022-10-12T13:31:11.675Z,1007.565796
2022-10-12T13:32:11.493Z,1007.565796
2022-10-12T13:33:06.483Z,1007.584351
2022-10-12T13:34:06.430Z,1007.525146
2022-10-12T13:35:01.328Z,1007.572083
2022-10-12T13:36:01.430Z,1007.61908
2022-10-12T13:36:56.351Z,1007.582336
2022-10-12T13:37:58.639Z,1007.520935
2022-10-12T13:38:51.266Z,1007.537292
2022-10-12T13:39:53.482Z,1007.465942
2022-10-12T13:40:45.951Z,1007.563721
2022-10-12T13:41:45.763Z,1007.465942
2022-10-12T13:42:41.070Z,1007.473877
2022-10-12T13:43:40.794Z,1007.394348
2022-10-12T13:46:45.408Z,1007.345154
2022-10-12T13:47:25.441Z,1007.334595
2022-10-12T13:48:46.455Z,1007.287659
2022-10-12T13:48:53.778Z,1007.287659
2022-10-12T13:48:58.026Z,1007.287659
2022-10-12T13:50:21.117Z,1007.273132
2022-10-12T13:51:20.583Z,1007.336548
2022-10-12T13:52:15.882Z,1007.320251
2022-10-12T13:53:16.516Z,1007.250793
2022-10-12T13:54:11.763Z,1007.308105
2022-10-12T13:55:12.095Z,1007.291748
2022-10-12T13:56:07.467Z,1007.275452
2022-10-12T13:58:03.263Z,1007.240967
2022-10-12T13:59:08.853Z,1007.216248
2022-10-12T13:59:14.232Z,1007.216248
2022-10-12T14:00:04.401Z,1007.222351
2022-10-12T14:00:57.189Z,1007.164978
2022-10-12T14:01:59.754Z,1007.169189
2022-10-12T14:02:52.381Z,1007.187439
2022-10-12T14:03:53.576Z,1007.248901
2022-10-12T14:05:51.494Z,1007.238647
2022-10-12T14:05:56.278Z,1007.238647
2022-10-12T14:06:49.748Z,1007.230652
2022-10-12T14:07:43.045Z,1007.140808
2022-10-12T14:08:42.730Z,1007.130493
2022-10-12T14:09:38.174Z,1007.140808
2022-10-12T14:10:38.064Z,1007.095642
2022-10-12T14:11:33.437Z,1007.034546
2022-10-12T14:12:33.213Z,1007.081543
2022-10-12T14:13:28.368Z,1007.108154
2022-10-12T14:14:28.170Z,1007.087646
2022-10-12T14:15:23.589Z,1007.114197
2022-10-12T14:16:25.930Z,1007.17749
2022-10-12T14:17:18.706Z,1007.108154
2022-10-12T14:18:19.083Z,1007.153259
2022-10-12T14:19:16.275Z,1007.208252
2022-10-12T14:21:11.414Z,1007.120605
2022-10-12T14:22:13.987Z,1007.094055
2022-10-12T14:23:06.663Z,1007.155151
2022-10-12T14:24:05.721Z,1007.075439
2022-10-12T14:26:26.049Z,1007.104309
2022-10-12T14:27:05.704Z,1007.181702
2022-10-12T14:28:05.924Z,1007.091797
2022-10-12T14:29:02.016Z,1007.091797
2022-10-12T14:30:59.284Z,1007.190002
2022-10-12T14:31:56.127Z,1007.094055
2022-10-12T14:32:59.664Z,1007.087952
2022-10-12T14:33:52.960Z,1007.132813
2022-10-12T14:34:52.857Z,1007.081848
2022-10-12T14:35:48.223Z,1007.05719
2022-10-12T14:36:48.300Z,1007.13916
2022-10-12T14:37:43.474Z,1007.157349
2022-10-12T14:38:43.487Z,1007.108459
2022-10-12T14:39:38.725Z,1007.116699
2022-10-12T14:40:39.354Z,1007.126953
2022-10-12T14:41:37.380Z,1007.057495
2022-10-12T14:42:39.457Z,1007.059448
2022-10-12T14:43:34.716Z,1006.988098
2022-10-12T14:45:31.563Z,1006.979858
2022-10-12T14:46:27.155Z,1006.971863
2022-10-12T14:47:29.781Z,1007.016541
2022-10-12T14:48:25.130Z,1006.947205
2022-10-12T14:49:27.651Z,1006.982056
2022-10-12T14:51:23.662Z,1006.904358
2022-10-12T14:52:16.407Z,1006.904358
2022-10-12T14:53:19.077Z,1006.941101
2022-10-12T14:54:12.009Z,1006.906555
2022-10-12T14:56:08.301Z,1006.928894
2022-10-12T14:57:08.510Z,1006.912598
2022-10-12T14:58:03.720Z,1006.984192
2022-10-12T14:59:03.616Z,1006.89624
2022-10-12T14:59:58.751Z,1006.975952
2022-10-12T15:00:57.391Z,1006.978149
2022-10-12T15:01:56.252Z,1006.892395
2022-10-12T15:03:28.834Z,1006.863586
2022-10-12T15:04:06.312Z,1006.937195
2022-10-12T15:05:04.356Z,1006.902344
2022-10-12T15:06:02.741Z,1006.912659
2022-10-12T15:07:01.620Z,1006.853455
2022-10-12T15:08:02.807Z,1006.873901
2022-10-12T15:08:58.634Z,1006.849304
2022-10-12T15:09:58.219Z,1006.894348
2022-10-12T15:10:53.752Z,1006.853455
2022-10-12T15:11:53.173Z,1006.863586
2022-10-12T15:12:48.085Z,1006.876099
2022-10-12T15:13:47.727Z,1006.906494
2022-10-12T15:14:43.000Z,1006.845093
2022-10-12T15:15:45.547Z,1006.906494
2022-10-12T15:16:39.393Z,1006.892029
2022-10-12T15:17:39.090Z,1006.822632
2022-10-12T15:18:34.493Z,1006.947327
2022-10-12T15:19:33.207Z,1006.832886
2022-10-12T15:20:35.484Z,1006.79834
2022-10-12T15:21:29.054Z,1006.818726
2022-10-12T15:22:33.267Z,1006.722839
2022-10-12T15:23:26.197Z,1006.77594
2022-10-12T15:24:28.626Z,1006.767639
2022-10-12T15:26:20.756Z,1006.743286
2022-10-12T15:27:18.987Z,1006.773926
2022-10-12T15:28:14.610Z,1006.810608
2022-10-12T15:29:14.375Z,1006.804504
2022-10-12T15:30:09.205Z,1006.804504
2022-10-12T15:31:17.837Z,1006.825012
2022-10-12T15:31:18.265Z,1006.825012
2022-10-12T15:31:19.273Z,1006.825012
2022-10-12T15:33:24.133Z,1006.865784
2022-10-12T15:33:46.511Z,1006.826904
2022-10-12T15:35:42.645Z,1006.828918
2022-10-12T15:36:39.710Z,1006.825012
2022-10-12T15:37:39.082Z,1006.894348
2022-10-12T15:38:34.813Z,1006.84729
2022-10-12T15:40:28.220Z,1006.937012
2022-10-12T15:41:27.405Z,1006.784119
2022-10-12T15:42:21.644Z,1006.771973
2022-10-12T15:43:20.605Z,1006.810547
2022-10-12T15:44:15.815Z,1006.786255
2022-10-12T15:46:14.282Z,1006.767883
2022-10-12T15:47:07.560Z,1006.769836
2022-10-12T15:48:07.952Z,1006.790161
2022-10-12T15:49:03.774Z,1006.73938
2022-10-12T15:50:02.774Z,1006.757507
2022-10-12T15:50:58.277Z,1006.665771
2022-10-12T15:51:55.933Z,1006.720947
2022-10-12T15:52:50.412Z,1006.627014
2022-10-12T15:53:49.269Z,1006.618958
2022-10-12T15:55:44.615Z,1006.612793
2022-10-12T15:56:39.731Z,1006.570007
2022-10-12T15:57:35.779Z,1006.553772
2022-10-12T15:58:34.528Z,1006.53125
2022-10-12T16:00:30.196Z,1006.543335
2022-10-12T16:01:23.732Z,1006.510681
2022-10-12T16:02:22.463Z,1006.512878
2022-10-12T16:03:19.204Z,1006.453735
2022-10-12T16:03:26.068Z,1006.453735
2022-10-12T16:04:16.996Z,1006.427185
2022-10-12T16:06:17.368Z,1006.347656
2022-10-12T16:07:09.132Z,1006.368042
2022-10-12T16:08:07.929Z,1006.353577
2022-10-12T16:09:03.367Z,1006.372131
2022-10-12T16:10:58.630Z,1006.272034
2022-10-12T16:11:55.887Z,1006.345459
2022-10-12T16:12:55.404Z,1006.322998
2022-10-12T16:13:56.864Z,1006.337158
2022-10-12T16:14:54.040Z,1006.337158
2022-10-12T16:15:49.030Z,1006.286377
2022-10-12T16:16:45.683Z,1006.341248
2022-10-12T16:18:23.907Z,1006.294373
2022-10-12T16:19:04.279Z,1006.274048
2022-10-12T16:20:03.410Z,1006.347656
2022-10-12T16:21:06.255Z,1006.33313
2022-10-12T16:22:06.586Z,1006.418884
2022-10-12T16:23:03.102Z,1006.396423
2022-10-12T16:24:03.399Z,1006.398254
2022-10-12T16:26:00.088Z,1006.292358
2022-10-12T16:27:04.113Z,1006.224854
2022-10-12T16:28:06.343Z,1006.300415
2022-10-12T16:28:59.968Z,1006.267761
2022-10-12T16:30:00.827Z,1006.353455
2022-10-12T16:30:57.285Z,1006.296082
2022-10-12T16:31:57.230Z,1006.192261
2022-10-12T16:32:54.544Z,1006.151306
2022-10-12T16:33:54.480Z,1006.153503
2022-10-12T16:35:52.152Z,1006.304077
2022-10-12T16:36:53.081Z,1006.318298
2022-10-12T16:37:48.438Z,1006.259216
2022-10-12T16:38:50.797Z,1006.295776
2022-10-12T16:40:50.018Z,1006.193909
2022-10-12T16:41:46.199Z,1006.214233
2022-10-12T16:42:46.248Z,1006.161255
2022-10-12T16:43:43.651Z,1006.303772
2022-10-12T16:44:46.627Z,1006.259216
2022-10-12T16:45:41.080Z,1006.224365
2022-10-12T16:46:45.335Z,1006.366882
2022-10-12T16:47:42.607Z,1006.28125
2022-10-12T16:48:41.251Z,1006.271118
2022-10-12T16:49:36.603Z,1006.214233
2022-10-12T16:50:39.650Z,1006.257019
2022-10-12T16:51:51.882Z,1006.330322
2022-10-12T16:52:47.308Z,1006.316101
2022-10-12T16:53:46.199Z,1006.379211
2022-10-12T16:54:51.387Z,1006.3974
2022-10-12T16:55:51.581Z,1006.35022
2022-10-12T16:56:48.932Z,1006.333923
2022-10-12T16:57:49.513Z,1006.409058
2022-10-12T16:58:45.939Z,1006.358154
2022-10-12T17:00:42.370Z,1006.553772
2022-10-12T17:02:52.948Z,1006.527161
2022-10-12T17:02:57.434Z,1006.527161
2022-10-12T17:03:12.864Z,1006.545776
2022-10-12T17:04:15.667Z,1006.446716
2022-10-12T17:05:17.587Z,1006.487366
2022-10-12T17:06:16.667Z,1006.562805
2022-10-12T17:07:20.891Z,1006.637939
2022-10-12T17:08:24.156Z,1006.585022
2022-10-12T17:10:32.207Z,1006.462036
2022-10-12T17:11:28.723Z,1006.476074
2022-10-12T17:12:32.280Z,1006.516663
2022-10-12T17:13:28.456Z,1006.565552
2022-10-12T17:14:32.182Z,1006.496277
2022-10-12T17:15:32.298Z,1006.500183
2022-10-12T17:16:43.107Z,1006.416748
2022-10-12T17:17:37.408Z,1006.508118
2022-10-12T17:18:39.428Z,1006.479858
2022-10-12T17:20:52.132Z,1006.573425
2022-10-12T17:21:48.915Z,1006.585632
2022-10-12T17:22:44.185Z,1006.683289
2022-10-12T17:23:45.269Z,1006.616089
2022-10-12T17:25:56.725Z,1006.645935
2022-10-12T17:26:53.276Z,1006.70282
2022-10-12T17:27:57.795Z,1006.76593
2022-10-12T17:28:57.109Z,1006.779846
2022-10-12T17:31:01.478Z,1006.688049
2022-10-12T17:31:58.157Z,1006.691956
2022-10-12T17:33:03.905Z,1006.677673
2022-10-12T17:34:00.117Z,1006.775146
2022-10-12T17:35:04.299Z,1006.718445
2022-10-12T17:36:00.765Z,1006.748779
2022-10-12T17:37:03.547Z,1006.846558
2022-10-12T17:38:08.913Z,1006.781189
2022-10-12T17:39:13.105Z,1006.782959
2022-10-12T17:41:14.149Z,1006.807678
2022-10-12T17:42:09.369Z,1006.72998
2022-10-12T17:43:10.916Z,1006.782959
2022-10-12T17:44:08.480Z,1006.819519
2022-10-12T17:46:08.242Z,1006.815308
2022-10-12T17:47:14.244Z,1006.766357
2022-10-12T17:48:12.977Z,1006.715149
2022-10-12T17:49:23.518Z,1006.698853
2022-10-12T17:49:24.981Z,1006.698853
2022-10-12T17:51:11.332Z,1006.684814
2022-10-12T17:52:13.069Z,1006.695007
2022-10-12T17:53:14.422Z,1006.707214
2022-10-12T17:54:13.449Z,1006.737488
2022-10-12T17:55:59.107Z,1006.774353
2022-10-12T17:56:37.962Z,1006.813293
2022-10-12T17:57:37.005Z,1006.764832
2022-10-12T17:58:40.634Z,1006.82782
2022-10-12T18:00:36.661Z,1006.800781
2022-10-12T18:01:35.837Z,1006.770142
2022-10-12T18:02:40.896Z,1006.808533
2022-10-12T18:03:35.619Z,1006.739197
2022-10-12T18:04:32.820Z,1006.755615
2022-10-12T18:05:34.991Z,1006.782043
2022-10-12T18:06:29.313Z,1006.698486
2022-10-12T18:07:32.795Z,1006.665771
2022-10-12T18:08:31.605Z,1006.686035
2022-10-12T18:09:25.950Z,1006.631104
2022-10-12T18:11:24.419Z,1006.567749
2022-10-12T18:12:25.447Z,1006.551392
2022-10-12T18:13:20.773Z,1006.598022
2022-10-12T18:14:16.687Z,1006.587952
2022-10-12T18:16:13.299Z,1006.581726
2022-10-12T18:17:10.519Z,1006.546875
2022-10-12T18:18:15.176Z,1006.601868
2022-10-12T18:19:11.836Z,1006.664856
2022-10-12T18:20:04.723Z,1006.640808
2022-10-12T18:21:07.694Z,1006.608154
2022-10-12T18:22:00.844Z,1006.626221
2022-10-12T18:23:04.902Z,1006.661011
2022-10-12T18:23:57.496Z,1006.626221
2022-10-12T18:24:57.677Z,1006.658936
2022-10-12T18:25:54.612Z,1006.721924
2022-10-12T18:26:53.696Z,1006.768616
2022-10-12T18:27:53.846Z,1006.701416
2022-10-12T18:28:57.557Z,1006.774475
2022-10-12T18:29:52.707Z,1006.744202
2022-10-12T18:30:55.462Z,1006.660339
2022-10-12T18:31:48.936Z,1006.678772
2022-10-12T18:32:51.301Z,1006.680542
2022-10-12T18:33:44.166Z,1006.672485
2022-10-12T18:34:50.736Z,1006.721558
2022-10-12T18:35:46.704Z,1006.776245
2022-10-12T18:37:15.778Z,1006.707031
2022-10-12T18:37:55.497Z,1006.749756
2022-10-12T18:38:55.325Z,1006.782471
2022-10-12T18:39:51.090Z,1006.778687
2022-10-12T18:40:50.106Z,1006.827332
2022-10-12T18:41:45.462Z,1006.786255
2022-10-12T18:42:46.492Z,1006.824829
2022-10-12T18:43:44.818Z,1006.889587
2022-10-12T18:45:42.668Z,1006.799866
2022-10-12T18:46:41.872Z,1006.777161
2022-10-12T18:47:44.584Z,1006.701721
2022-10-12T18:48:36.712Z,1006.729858
2022-10-12T18:50:34.013Z,1006.739929
2022-10-12T18:51:37.759Z,1006.75
2022-10-12T18:52:31.091Z,1006.672791
2022-10-12T18:53:29.811Z,1006.788574
2022-10-12T18:54:29.939Z,1006.717285
2022-10-12T18:55:35.688Z,1006.763916
2022-10-12T18:56:39.663Z,1006.794067
2022-10-12T18:57:39.948Z,1006.789856
2022-10-12T18:58:40.337Z,1006.809998
2022-10-12T19:00:36.933Z,1006.763428
2022-10-12T19:01:30.089Z,1006.702209
2022-10-12T19:02:32.886Z,1006.73877
2022-10-12T19:03:25.555Z,1006.643127
2022-10-12T19:04:26.197Z,1006.659363
2022-10-12T19:05:26.171Z,1006.679504
2022-10-12T19:06:18.764Z,1006.645142
2022-10-12T19:07:20.454Z,1006.663208
2022-10-12T19:08:12.891Z,1006.768921
2022-10-12T19:09:20.581Z,1006.689697
2022-10-12T19:11:18.933Z,1006.703125
2022-10-12T19:12:52.810Z,1006.655151
2022-10-12T19:15:40.126Z,1006.639832
2022-10-12T19:16:39.676Z,1006.725403
2022-10-12T19:17:35.372Z,1006.615173
2022-10-12T19:18:33.143Z,1006.624817
2022-10-12T19:20:18.635Z,1006.669373
2022-10-12T19:20:59.441Z,1006.577515
2022-10-12T19:21:58.575Z,1006.595947
2022-10-12T19:22:56.757Z,1006.548584
2022-10-12T19:23:57.029Z,1006.556274
2022-10-12T19:25:50.838Z,1006.498352
2022-10-12T19:26:53.433Z,1006.503906
2022-10-12T19:27:49.813Z,1006.440186
2022-10-12T19:28:52.093Z,1006.433899
2022-10-12T19:29:47.508Z,1006.399475
2022-10-12T19:30:45.644Z,1006.417603
2022-10-12T19:31:42.172Z,1006.394897
2022-10-12T19:32:41.710Z,1006.396851
2022-10-12T19:33:39.671Z,1006.374207
2022-10-12T19:35:36.347Z,1006.396118
2022-10-12T19:36:38.169Z,1006.320618
2022-10-12T19:37:31.628Z,1006.403564
2022-10-12T19:38:31.329Z,1006.419983
2022-10-12T19:39:25.921Z,1006.442627
2022-10-12T19:41:31.878Z,1006.364685
2022-10-12T19:42:31.991Z,1006.450317
2022-10-12T19:43:28.314Z,1006.417603
2022-10-12T19:44:27.062Z,1006.417603
2022-10-12T19:45:30.532Z,1006.287476
2022-10-12T19:46:23.160Z,1006.292969
2022-10-12T19:47:21.835Z,1006.351563
2022-10-12T19:48:16.115Z,1006.241394
2022-10-12T19:49:18.460Z,1006.265259
2022-10-12T19:51:15.801Z,1006.246338
2022-10-12T19:52:17.827Z,1006.197266
2022-10-12T19:54:09.719Z,1006.130615
2022-10-12T19:54:43.976Z,1006.123108
2022-10-12T19:55:45.009Z,1006.215027
2022-10-12T19:56:44.699Z,1006.127747
2022-10-12T19:57:39.927Z,1006.21875
2022-10-12T19:58:43.431Z,1006.169678
2022-10-12T19:59:40.434Z,1006.179688
2022-10-12T20:00:40.788Z,1006.112549
2022-10-12T20:01:36.709Z,1006.159058
2022-10-12T20:02:39.304Z,1006.226257
2022-10-12T20:03:37.236Z,1006.194397
2022-10-12T20:05:34.297Z,1006.175964
2022-10-12T20:06:37.738Z,1006.230774
2022-10-12T20:07:35.833Z,1006.230774
2022-10-12T20:08:38.499Z,1006.303772
2022-10-12T20:09:30.439Z,1006.232483
2022-10-12T20:09:49.269Z,1006.204346
2022-10-12T20:10:51.766Z,1006.238831
2022-10-12T20:11:51.222Z,1006.247192
2022-10-12T20:12:55.142Z,1006.250916
2022-10-12T20:13:47.409Z,1006.226257
2022-10-12T20:14:51.512Z,1006.169678
2022-10-12T20:15:47.956Z,1006.234558
2022-10-12T20:16:49.352Z,1006.234558
2022-10-12T20:17:43.738Z,1006.244629
2022-10-12T20:18:42.544Z,1006.173462
2022-10-12T20:20:44.837Z,1006.2547
2022-10-12T20:21:37.143Z,1006.21991
2022-10-12T20:22:35.270Z,1006.193542
2022-10-12T20:23:35.397Z,1006.272705
2022-10-12T20:26:20.726Z,1006.135254
2022-10-12T20:27:10.132Z,1006.208679
2022-10-12T20:28:08.196Z,1006.17218
2022-10-12T20:29:04.381Z,1006.20697
2022-10-12T20:30:01.159Z,1006.190613
2022-10-12T20:31:03.327Z,1006.265259
2022-10-12T20:32:01.640Z,1006.279053
2022-10-12T20:33:04.724Z,1006.224548
2022-10-12T20:34:04.064Z,1006.196899
2022-10-12T20:36:01.923Z,1006.152039
2022-10-12T20:37:07.515Z,1006.208679
2022-10-12T20:38:06.273Z,1006.186035
2022-10-12T20:39:10.953Z,1006.173462
2022-10-12T20:40:06.101Z,1006.209839
2022-10-12T20:41:10.239Z,1006.169128
2022-10-12T20:42:02.737Z,1006.266418
2022-10-12T20:43:04.766Z,1006.233765
2022-10-12T20:44:05.078Z,1006.255859
2022-10-12T20:46:05.527Z,1006.188416
2022-10-12T20:47:03.580Z,1006.269592
2022-10-12T20:47:58.723Z,1006.269592
2022-10-12T20:48:59.162Z,1006.210449
2022-10-12T20:49:58.898Z,1006.253296
2022-10-12T20:50:53.059Z,1006.22052
2022-10-12T20:51:52.076Z,1006.224243
2022-10-12T20:52:46.426Z,1006.197815
2022-10-12T20:53:47.904Z,1006.264404
2022-10-12T20:54:40.538Z,1006.254395
2022-10-12T20:55:42.908Z,1006.262329
2022-10-12T20:56:42.387Z,1006.274475
2022-10-12T20:57:48.018Z,1006.195313
2022-10-12T20:58:47.802Z,1006.284546
2022-10-12T20:59:47.164Z,1006.229675
2022-10-12T21:00:48.654Z,1006.243408
2022-10-12T21:01:46.958Z,1006.229065
2022-10-12T21:02:52.445Z,1006.285645
2022-10-12T21:04:38.540Z,1006.157959
2022-10-12T21:05:18.669Z,1006.16687
2022-10-12T21:06:19.078Z,1006.288757
2022-10-12T21:07:18.176Z,1006.203308
2022-10-12T21:08:18.672Z,1006.215332
2022-10-12T21:09:21.252Z,1006.288208
2022-10-12T21:11:24.664Z,1006.259216
2022-10-12T21:12:19.034Z,1006.250793
2022-10-12T21:13:18.759Z,1006.216431
2022-10-12T21:14:22.298Z,1006.120911
2022-10-12T21:16:20.415Z,1006.185364
2022-10-12T21:17:24.230Z,1006.144592
2022-10-12T21:18:23.860Z,1006.13623
2022-10-12T21:19:25.571Z,1006.223755
2022-10-12T21:21:25.212Z,1006.131958
2022-10-12T21:22:21.762Z,1006.133667
2022-10-12T21:23:23.979Z,1006.119324
2022-10-12T21:24:25.729Z,1006.190186
2022-10-12T21:26:32.916Z,1006.149353
2022-10-12T21:27:32.348Z,1006.126648
2022-10-12T21:28:31.309Z,1006.1203
2022-10-12T21:29:31.883Z,1006.083923
2022-10-12T21:31:32.553Z,1006.061279
2022-10-12T21:32:40.519Z,1006.079224
2022-10-12T21:34:26.058Z,1006.034851
2022-10-12T21:35:50.521Z,1006.05719
2022-10-12T21:36:50.432Z,1006.089844